Time;durP1;ratioP1;P1;durP2;ratioP2;P2;SDS_P1;SDS_P2;PMS_P1;PMS_P2;Temp;Humidity;BMP_temperature;BMP_pressure;BME280_temperature;BME280_humidity;BME280_pressure;Samples;Min_cycle;Max_cycle;Signal;HPM_P1;HPM_P2
2023/10/26 00:03:52;;;;;;;15.70;12.60;;;;;;;9.53;97.06;98098.86;218022;1258;141738;-72
2023/10/26 00:08:56;;;;;;;19.30;12.80;;;;;;;9.48;96.99;98098.66;219181;1259;141343;-71
2023/10/26 00:14:01;;;;;;;24.00;14.10;;;;;;;9.46;96.98;98096.80;217474;1262;140675;-72
2023/10/26 00:19:05;;;;;;;16.50;11.40;;;;;;;9.37;96.28;98094.20;220020;1259;140171;-73
2023/10/26 00:24:10;;;;;;;17.30;12.40;;;;;;;9.30;96.37;98086.70;219726;1259;141938;-71
2023/10/26 00:29:17;;;;;;;18.80;13.70;;;;;;;9.28;96.41;98079.83;219906;1259;140725;-71
2023/10/26 00:34:21;;;;;;;;;;;;;;;9.24;95.99;98072.06;219939;1259;141283;-72
2023/10/26 00:39:25;;;;;;;21.30;13.60;;;;;;;9.17;96.11;98064.10;218380;1259;126803;-70
2023/10/26 00:44:30;;;;;;;15.80;13.00;;;;;;;9.10;95.48;98065.96;218802;1259;141001;-71
2023/10/26 00:49:35;;;;;;;17.20;11.60;;;;;;;9.01;95.42;98067.39;217457;1258;140450;-71
2023/10/26 00:54:42;;;;;;;14.20;11.10;;;;;;;8.90;95.14;98064.14;218931;1262;140582;-71
2023/10/26 00:59:48;;;;;;;;;;;;;;;8.80;95.43;98056.91;218185;1259;140103;-72
2023/10/26 01:04:53;;;;;;;18.90;13.50;;;;;;;8.78;96.29;98051.33;217542;1262;127151;-71
2023/10/26 01:09:58;;;;;;;19.30;14.80;;;;;;;8.84;96.69;98049.85;217690;1259;141475;-71
2023/10/26 01:15:03;;;;;;;20.00;13.30;;;;;;;8.87;96.77;98048.26;217251;1262;140836;-71
2023/10/26 01:20:09;;;;;;;18.30;13.50;;;;;;;8.89;96.94;98051.11;217916;1262;141059;-72
2023/10/26 01:25:14;;;;;;;19.20;13.90;;;;;;;8.90;97.09;98041.02;217472;1262;140184;-72
2023/10/26 01:30:19;;;;;;;19.90;13.20;;;;;;;8.89;97.43;98040.84;217934;1259;140754;-73
2023/10/26 01:35:23;;;;;;;24.90;15.30;;;;;;;8.87;97.36;98035.80;217326;1259;140351;-72
2023/10/26 01:40:28;;;;;;;22.00;15.90;;;;;;;8.85;97.60;98034.55;217521;1259;141544;-72
2023/10/26 01:45:33;;;;;;;23.60;14.60;;;;;;;8.83;97.78;98034.23;218865;1259;141268;-72
2023/10/26 01:50:37;;;;;;;26.20;15.50;;;;;;;8.84;98.12;98030.77;217473;1259;141382;-70
2023/10/26 01:55:42;;;;;;;29.10;16.20;;;;;;;8.87;98.43;98024.16;218342;1260;140239;-69
2023/10/26 02:00:46;;;;;;;22.50;15.50;;;;;;;8.91;98.57;98013.16;217505;1259;141288;-69
2023/10/26 02:05:50;;;;;;;20.60;13.40;;;;;;;8.94;98.71;98005.25;217161;1260;139892;-68
2023/10/26 02:10:55;;;;;;;25.60;16.40;;;;;;;8.94;98.56;97999.52;220064;1259;141117;-68
2023/10/26 02:16:01;;;;;;;23.40;15.40;;;;;;;8.94;98.57;97995.20;220160;1258;140410;-69
2023/10/26 02:21:06;;;;;;;;;;;;;;;8.99;98.76;97995.90;219902;1259;469482;-69
2023/10/26 02:26:10;;;;;;;23.00;14.30;;;;;;;8.97;98.51;97981.07;220054;1257;126746;-69
2023/10/26 02:31:16;;;;;;;24.20;16.00;;;;;;;8.97;98.43;97971.65;220332;1257;142218;-69
2023/10/26 02:36:22;;;;;;;30.70;19.00;;;;;;;9.00;98.48;97961.77;217708;1259;142063;-67
2023/10/26 02:41:27;;;;;;;27.00;18.00;;;;;;;9.04;98.52;97956.98;219034;1261;140651;-69
2023/10/26 02:46:32;;;;;;;29.60;20.10;;;;;;;9.07;98.64;97951.52;219049;1260;143018;-68
2023/10/26 02:51:37;;;;;;;27.10;16.90;;;;;;;9.09;98.54;97944.08;217899;1260;140599;-70
2023/10/26 02:56:42;;;;;;;28.20;16.70;;;;;;;9.06;98.34;97936.73;218519;1260;142507;-72
2023/10/26 03:01:47;;;;;;;26.10;16.90;;;;;;;9.02;98.13;97932.27;217374;1257;140368;-72
2023/10/26 03:06:51;;;;;;;26.10;16.10;;;;;;;8.96;97.91;97932.27;218364;1259;141341;-71
2023/10/26 03:11:55;;;;;;;25.00;17.80;;;;;;;8.92;98.04;97923.56;217932;1260;140943;-72
2023/10/26 03:16:59;;;;;;;26.90;16.60;;;;;;;8.87;98.16;97917.77;217856;1261;139951;-73
2023/10/26 03:22:03;;;;;;;22.00;13.90;;;;;;;8.83;98.30;97920.56;217316;1261;140522;-72
2023/10/26 03:27:07;;;;;;;17.50;11.80;;;;;;;8.78;98.58;97921.25;217792;1258;140281;-74
2023/10/26 03:32:12;;;;;;;19.80;14.60;;;;;;;8.74;98.59;97914.98;218136;1259;140309;-72
2023/10/26 03:37:17;;;;;;;20.30;13.40;;;;;;;8.69;98.72;97908.30;218241;1259;140712;-73
2023/10/26 03:42:22;;;;;;;18.40;11.70;;;;;;;8.67;98.86;97903.08;218825;1261;141284;-72
2023/10/26 03:47:27;;;;;;;19.00;13.30;;;;;;;8.66;98.79;97898.73;218173;1261;140191;-69
2023/10/26 03:52:32;;;;;;;17.20;11.70;;;;;;;8.63;98.63;97892.77;218197;1258;150784;-69
2023/10/26 03:57:36;;;;;;;24.00;15.40;;;;;;;8.63;98.69;97891.50;217915;1260;142512;-68
2023/10/26 04:02:40;;;;;;;23.20;13.20;;;;;;;8.61;98.87;97888.79;217151;1261;141256;-71
2023/10/26 04:07:45;;;;;;;19.80;12.80;;;;;;;8.58;98.84;97884.96;219138;1259;140735;-68
2023/10/26 04:12:49;;;;;;;18.90;13.80;;;;;;;8.56;98.92;97877.59;219452;1258;141600;-71
2023/10/26 04:17:53;;;;;;;23.20;15.30;;;;;;;8.56;98.96;97865.70;219208;1259;140288;-70
2023/10/26 04:22:58;;;;;;;21.10;15.30;;;;;;;8.59;99.15;97861.33;219762;1259;141048;-71
2023/10/26 04:28:03;;;;;;;23.80;15.80;;;;;;;8.61;98.96;97846.13;217993;1258;140764;-69
2023/10/26 04:33:08;;;;;;;18.40;12.40;;;;;;;8.63;99.30;97828.17;218721;1259;140133;-68
2023/10/26 04:38:12;;;;;;;21.60;15.10;;;;;;;8.67;99.13;97822.33;218615;1260;141353;-69
2023/10/26 04:43:18;;;;;;;20.10;14.40;;;;;;;8.67;99.25;97829.77;218225;1259;143420;-73
2023/10/26 04:48:22;;;;;;;27.50;15.50;;;;;;;8.67;99.18;97831.73;217394;1258;140606;-76
2023/10/26 04:53:28;;;;;;;24.80;16.30;;;;;;;8.65;99.37;97825.78;217767;1258;208232;-71
2023/10/26 04:58:32;;;;;;;19.60;13.80;;;;;;;8.67;99.45;97825.95;217839;1260;139952;-72
2023/10/26 05:03:38;;;;;;;21.50;15.30;;;;;;;8.67;99.44;97829.14;218260;1261;141919;-72
2023/10/26 05:08:42;;;;;;;28.40;18.00;;;;;;;8.66;99.47;97824.25;220131;1261;141236;-72
2023/10/26 05:13:48;;;;;;;25.50;17.50;;;;;;;8.69;99.70;97810.44;217198;1262;140410;-70
2023/10/26 05:18:53;;;;;;;25.80;17.60;;;;;;;8.76;99.91;97799.16;218382;1261;141194;-69
2023/10/26 05:23:58;;;;;;;23.60;17.40;;;;;;;8.82;99.84;97788.84;217731;1257;140150;-70
2023/10/26 05:29:03;;;;;;;25.90;16.10;;;;;;;8.83;99.88;97782.84;217541;1259;141287;-70
2023/10/26 05:34:08;;;;;;;28.90;19.50;;;;;;;8.84;99.87;97775.19;217562;1257;140664;-68
2023/10/26 05:39:12;;;;;;;22.10;14.20;;;;;;;8.87;99.69;97768.35;217486;1259;140210;-67
2023/10/26 05:44:18;;;;;;;21.90;16.50;;;;;;;8.86;99.65;97771.61;218816;1258;140465;-68
2023/10/26 05:49:23;;;;;;;23.20;13.90;;;;;;;8.85;99.79;97780.44;217456;1262;140352;-67
2023/10/26 05:54:28;;;;;;;27.60;18.90;;;;;;;8.85;99.94;97783.68;218861;1259;141238;-68
2023/10/26 05:59:33;;;;;;;24.20;16.50;;;;;;;8.88;99.95;97801.23;217744;1262;140490;-69
2023/10/26 06:04:37;;;;;;;21.20;15.60;;;;;;;8.93;99.86;97804.20;217957;1262;140392;-68
2023/10/26 06:09:42;;;;;;;24.90;16.00;;;;;;;8.91;99.97;97796.34;220161;1259;141017;-70
2023/10/26 06:14:46;;;;;;;25.30;17.50;;;;;;;8.90;99.93;97792.03;220204;1257;140324;-74
2023/10/26 06:19:51;;;;;;;23.90;16.50;;;;;;;8.92;99.94;97795.21;220236;1262;151204;-74
2023/10/26 06:24:57;;;;;;;29.00;19.30;;;;;;;8.94;99.85;97791.98;219087;1259;141121;-69
2023/10/26 06:30:01;;;;;;;22.80;14.50;;;;;;;8.98;99.99;97786.96;218304;1261;140274;-68
2023/10/26 06:35:06;;;;;;;23.50;16.30;;;;;;;9.00;99.99;97782.39;217360;1260;140329;-67
2023/10/26 06:40:10;;;;;;;25.90;17.70;;;;;;;9.04;100.00;97777.96;217457;1259;140652;-67
2023/10/26 06:45:18;;;;;;;30.20;15.40;;;;;;;9.09;100.00;97762.64;218590;1258;141268;-67
2023/10/26 06:50:28;;;;;;;19.80;13.90;;;;;;;9.20;100.00;97755.35;217731;1259;141137;-67
2023/10/26 06:55:33;;;;;;;22.40;16.40;;;;;;;9.24;100.00;97748.36;217860;1262;145382;-67
2023/10/26 07:00:37;;;;;;;32.90;17.60;;;;;;;9.24;100.00;97749.31;218208;1260;141768;-68
2023/10/26 07:05:42;;;;;;;21.00;15.70;;;;;;;9.29;100.00;97748.38;218607;1262;141140;-68
2023/10/26 07:10:47;;;;;;;22.80;16.90;;;;;;;9.34;100.00;97741.61;217152;1263;140646;-70
2023/10/26 07:15:52;;;;;;;23.10;16.90;;;;;;;9.42;100.00;97727.41;217945;1261;142371;-71
2023/10/26 07:20:57;;;;;;;19.80;16.20;;;;;;;9.61;100.00;97717.38;217276;1262;140313;-71
2023/10/26 07:26:02;;;;;;;17.90;13.20;;;;;;;9.95;100.00;97723.92;217656;1261;141709;-72
2023/10/26 07:31:06;;;;;;;28.50;16.80;;;;;;;10.69;100.00;97724.48;217427;1261;140305;-71
2023/10/26 07:36:11;;;;;;;18.10;14.80;;;;;;;11.03;100.00;97729.14;217150;1260;141515;-68
2023/10/26 07:41:16;;;;;;;22.40;15.00;;;;;;;10.97;100.00;97723.48;218117;1262;140906;-68
2023/10/26 07:46:40;;;;;;;27.50;20.20;;;;;;;10.97;100.00;97718.09;217137;1262;140538;-71
2023/10/26 07:51:45;;;;;;;28.60;17.40;;;;;;;11.17;100.00;97713.17;217463;1262;140464;-70
2023/10/26 07:56:51;;;;;;;22.10;16.70;;;;;;;11.43;100.00;97703.25;217501;1262;141711;-72
2023/10/26 08:01:56;;;;;;;23.90;16.90;;;;;;;11.66;100.00;97704.67;218210;1261;140948;-69
2023/10/26 08:07:01;;;;;;;23.90;16.80;;;;;;;11.78;99.82;97706.00;219171;1262;142174;-69
2023/10/26 08:12:06;;;;;;;21.10;15.90;;;;;;;11.95;99.92;97708.27;218340;1261;141576;-70
2023/10/26 08:17:11;;;;;;;19.80;16.10;;;;;;;12.02;99.15;97709.07;218078;1261;140388;-68
2023/10/26 08:22:16;;;;;;;18.50;13.40;;;;;;;11.86;98.46;97709.63;218341;1260;142219;-70
2023/10/26 08:27:23;;;;;;;18.90;13.60;;;;;;;11.73;98.15;97710.48;217609;1260;141682;-69
2023/10/26 08:32:27;;;;;;;20.20;13.30;;;;;;;11.62;98.23;97709.55;217749;1260;141304;-70
2023/10/26 08:37:31;;;;;;;14.70;11.30;;;;;;;11.60;98.79;97712.79;217447;1260;141366;-68
2023/10/26 08:42:42;;;;;;;22.00;14.30;;;;;;;11.63;98.82;97708.70;219165;1261;141162;-72
2023/10/26 08:47:51;;;;;;;17.90;12.20;;;;;;;11.73;98.98;97707.87;217302;1260;141136;-72
2023/10/26 08:52:56;;;;;;;15.30;11.80;;;;;;;11.88;99.19;97704.04;218474;1260;140652;-73
2023/10/26 08:58:02;;;;;;;16.90;11.10;;;;;;;12.00;99.04;97704.83;218024;1259;141098;-69
2023/10/26 09:03:08;;;;;;;15.30;11.00;;;;;;;12.05;98.79;97707.69;217496;1263;140431;-68
2023/10/26 09:08:17;;;;;;;19.20;11.40;;;;;;;12.01;98.12;97701.20;217612;1261;140415;-69
2023/10/26 09:13:27;;;;;;;27.60;13.00;;;;;;;11.96;98.00;97697.80;218136;1261;140634;-70
2023/10/26 09:18:33;;;;;;;12.20;9.10;;;;;;;11.94;98.21;97694.36;217425;1263;141506;-70
2023/10/26 09:23:42;;;;;;;14.70;11.80;;;;;;;11.95;97.99;97689.21;217623;1263;140929;-70
2023/10/26 09:28:52;;;;;;;12.50;9.50;;;;;;;12.06;98.29;97689.30;217955;1262;140902;-70
2023/10/26 09:34:10;;;;;;;12.80;9.80;;;;;;;12.27;98.55;97691.27;217632;1260;140207;-69
2023/10/26 09:39:15;;;;;;;18.60;10.50;;;;;;;12.39;98.06;97685.02;217622;1262;139769;-72
2023/10/26 09:44:20;;;;;;;15.70;8.40;;;;;;;12.53;98.03;97682.13;217209;1263;139958;-71
2023/10/26 09:49:26;;;;;;;14.70;11.70;;;;;;;12.64;97.81;97679.94;217903;1260;140016;-68
2023/10/26 09:54:40;;;;;;;11.70;9.40;;;;;;;12.67;97.27;97677.63;218085;1260;140399;-74
2023/10/26 09:59:52;;;;;;;12.10;9.40;;;;;;;12.71;97.10;97674.55;218265;1260;142516;-75
2023/10/26 10:05:00;;;;;;;15.20;10.20;;;;;;;12.71;96.91;97671.83;218541;1259;140283;-72
2023/10/26 10:10:06;;;;;;;7.70;6.90;;;;;;;12.77;97.21;97667.33;217903;1257;142296;-68
2023/10/26 10:15:13;;;;;;;9.00;8.00;;;;;;;12.81;96.86;97668.16;219001;1258;139928;-69
2023/10/26 10:20:41;;;;;;;5.30;4.60;;;;;;;12.79;96.57;97663.23;218280;1263;141872;-70
2023/10/26 10:25:49;;;;;;;;;;;;;;;12.85;96.46;97654.75;217617;1260;141372;-71
2023/10/26 10:30:57;;;;;;;7.60;5.70;;;;;;;12.87;96.70;97656.52;218577;1259;126791;-70
2023/10/26 10:36:08;;;;;;;7.10;6.40;;;;;;;12.92;96.49;97651.38;217500;1257;140278;-72
2023/10/26 10:41:15;;;;;;;7.80;6.10;;;;;;;12.92;96.08;97652.83;218297;1257;142355;-72
2023/10/26 10:46:25;;;;;;;8.60;5.90;;;;;;;12.94;96.05;97650.59;218025;1257;140391;-71
2023/10/26 10:51:38;;;;;;;6.20;5.20;;;;;;;12.94;95.71;97653.01;218840;1257;141829;-72
2023/10/26 10:56:46;;;;;;;5.10;4.60;;;;;;;12.86;95.21;97651.20;217334;1262;140125;-70
2023/10/26 11:02:13;;;;;;;5.90;5.20;;;;;;;12.77;95.39;97651.38;218102;1260;139901;-73
2023/10/26 11:07:26;;;;;;;4.80;3.80;;;;;;;12.67;95.45;97651.33;217294;1262;139999;-72
2023/10/26 11:12:32;;;;;;;6.60;4.90;;;;;;;12.70;95.41;97652.66;217318;1262;139876;-71
2023/10/26 11:17:39;;;;;;;5.80;4.70;;;;;;;12.64;95.49;97654.91;217377;1260;139964;-71
2023/10/26 11:22:45;;;;;;;5.10;4.30;;;;;;;12.51;95.29;97658.12;217425;1262;140565;-69
2023/10/26 11:27:50;;;;;;;3.80;3.40;;;;;;;12.37;95.47;97660.84;218468;1258;212428;-71
2023/10/26 11:32:56;;;;;;;6.50;2.90;;;;;;;12.32;95.77;97662.98;218730;1257;142345;-70
2023/10/26 11:38:03;;;;;;;6.60;3.80;;;;;;;12.28;95.91;97661.85;217762;1259;140161;-67
2023/10/26 11:43:07;;;;;;;6.20;3.70;;;;;;;12.26;96.11;97665.38;218311;1259;139953;-69
2023/10/26 11:48:29;;;;;;;3.00;2.80;;;;;;;12.28;96.52;97664.48;218918;1259;141947;-69
2023/10/26 11:53:35;;;;;;;5.40;3.30;;;;;;;12.27;96.31;97671.02;217353;1261;140126;-68
2023/10/26 11:58:40;;;;;;;4.40;3.30;;;;;;;12.25;96.47;97668.39;218238;1259;141452;-68
2023/10/26 12:03:50;;;;;;;4.70;4.30;;;;;;;12.21;96.69;97670.94;217623;1259;140694;-68
2023/10/26 12:08:57;;;;;;;3.80;3.50;;;;;;;12.23;96.98;97670.88;219071;1259;139689;-68
2023/10/26 12:14:02;;;;;;;5.70;5.20;;;;;;;12.31;97.23;97667.80;218686;1257;140267;-72
2023/10/26 12:19:07;;;;;;;3.50;3.30;;;;;;;12.40;97.53;97666.19;218147;1258;140415;-72
2023/10/26 12:24:12;;;;;;;5.60;4.30;;;;;;;12.46;97.41;97662.81;218514;1259;140249;-69
2023/10/26 12:29:18;;;;;;;3.80;3.40;;;;;;;12.57;97.63;97662.86;218640;1258;141113;-71
2023/10/26 12:34:22;;;;;;;3.30;3.10;;;;;;;12.67;97.57;97667.31;218324;1257;140231;-69
2023/10/26 12:39:26;;;;;;;4.60;3.40;;;;;;;12.75;97.65;97666.40;217817;1257;140783;-72
2023/10/26 12:44:35;;;;;;;5.30;3.70;;;;;;;12.77;97.65;97666.67;217398;1260;141024;-68
2023/10/26 12:49:39;;;;;;;4.30;3.90;;;;;;;12.78;97.57;97669.39;218186;1260;140435;-72
2023/10/26 12:54:43;;;;;;;3.20;3.00;;;;;;;12.81;97.96;97671.52;218217;1257;140337;-73
2023/10/26 12:59:50;;;;;;;4.40;4.10;;;;;;;12.86;97.89;97675.48;217750;1257;140212;-70
2023/10/26 13:04:55;;;;;;;3.00;2.80;;;;;;;12.87;97.81;97677.76;217976;1258;140280;-70
2023/10/26 13:10:00;;;;;;;3.50;3.30;;;;;;;12.87;97.90;97681.06;217383;1259;141837;-72
2023/10/26 13:15:05;;;;;;;3.30;3.10;;;;;;;12.91;97.84;97681.23;217507;1259;139945;-74
2023/10/26 13:20:10;;;;;;;2.30;2.20;;;;;;;12.91;97.68;97689.21;217893;1259;140785;-75
2023/10/26 13:25:18;;;;;;;6.90;3.40;;;;;;;12.88;97.49;97689.00;217902;1262;140401;-72
2023/10/26 13:30:22;;;;;;;2.80;2.30;;;;;;;12.88;97.37;97691.48;218702;1258;232628;-73
2023/10/26 13:35:29;;;;;;;3.10;2.80;;;;;;;12.88;97.46;97688.75;218242;1258;141119;-74
2023/10/26 13:40:35;;;;;;;4.40;2.90;;;;;;;12.83;97.10;97697.98;217560;1262;140058;-73
2023/10/26 13:45:43;;;;;;;3.60;2.20;;;;;;;12.72;97.00;97698.45;218436;1261;140316;-71
2023/10/26 13:50:50;;;;;;;4.10;3.10;;;;;;;12.63;96.75;97696.58;218008;1257;236882;-73
2023/10/26 13:56:03;;;;;;;3.10;2.60;;;;;;;12.54;96.98;97700.49;218398;1257;140097;-72
2023/10/26 14:01:14;;;;;;;3.30;2.90;;;;;;;12.49;96.96;97699.48;217967;1259;140318;-72
2023/10/26 14:06:24;;;;;;;3.00;2.70;;;;;;;12.45;97.18;97699.65;217973;1257;142201;-72
2023/10/26 14:11:30;;;;;;;3.50;3.30;;;;;;;12.46;97.51;97708.84;218381;1257;140659;-74
2023/10/26 14:16:37;;;;;;;3.60;3.40;;;;;;;12.47;97.75;97708.56;217992;1258;140616;-71
2023/10/26 14:21:46;;;;;;;5.20;4.70;;;;;;;12.45;97.42;97699.98;217707;1258;140580;-71
2023/10/26 14:26:52;;;;;;;4.60;3.90;;;;;;;12.39;97.54;97706.70;218024;1261;141898;-71
2023/10/26 14:31:59;;;;;;;3.10;2.80;;;;;;;12.34;97.31;97720.27;217677;1259;141253;-71
2023/10/26 14:37:04;;;;;;;4.40;2.60;;;;;;;12.24;97.23;97725.14;218440;1257;141332;-70
2023/10/26 14:42:12;;;;;;;2.00;1.80;;;;;;;12.16;97.07;97724.88;218802;1258;141079;-70
2023/10/26 14:47:20;;;;;;;3.50;1.60;;;;;;;12.07;97.02;97725.77;217517;1261;140302;-72
2023/10/26 14:52:37;;;;;;;1.30;1.30;;;;;;;12.01;96.93;97727.36;217921;1257;140326;-68
2023/10/26 14:57:49;;;;;;;1.70;1.60;;;;;;;11.96;96.93;97727.66;218140;1259;140456;-72
2023/10/26 15:02:54;;;;;;;1.80;1.70;;;;;;;11.88;96.72;97726.58;218506;1257;140054;-72
2023/10/26 15:08:01;;;;;;;2.40;2.20;;;;;;;11.76;96.49;97728.92;217376;1259;139747;-70
2023/10/26 15:13:07;;;;;;;0.80;0.80;;;;;;;11.69;96.73;97735.58;217659;1259;141991;-71
2023/10/26 15:18:12;;;;;;;1.80;1.60;;;;;;;11.63;96.97;97744.59;217945;1258;139935;-70
2023/10/26 15:23:17;;;;;;;1.10;1.10;;;;;;;11.58;96.83;97741.95;218324;1258;140226;-71
2023/10/26 15:28:22;;;;;;;1.90;1.70;;;;;;;11.56;96.83;97751.06;218319;1257;140407;-71
2023/10/26 15:33:31;;;;;;;1.50;1.20;;;;;;;11.51;96.98;97753.52;218187;1259;140719;-71
2023/10/26 15:38:44;;;;;;;2.30;1.60;;;;;;;11.50;97.04;97757.38;218270;1258;141554;-68
2023/10/26 15:44:01;;;;;;;2.50;2.00;;;;;;;11.49;96.93;97760.32;218597;1258;245079;-69
2023/10/26 15:49:08;;;;;;;1.90;1.50;;;;;;;11.45;97.09;97762.83;219504;1258;140564;-70
2023/10/26 15:54:35;;;;;;;2.50;2.30;;;;;;;11.42;97.25;97761.00;219007;1258;140422;-69
2023/10/26 15:59:42;;;;;;;2.60;1.70;;;;;;;11.38;97.18;97767.67;218025;1257;141002;-70
2023/10/26 16:04:49;;;;;;;3.20;2.80;;;;;;;11.33;96.94;97772.27;217719;1258;141061;-70
2023/10/26 16:09:58;;;;;;;2.80;2.00;;;;;;;11.30;97.47;97782.89;218045;1258;142659;-70
2023/10/26 16:15:16;;;;;;;3.00;2.60;;;;;;;11.28;97.60;97787.14;219622;1259;140679;-71
2023/10/26 16:20:32;;;;;;;3.00;2.80;;;;;;;11.25;97.37;97790.00;218755;1257;139832;-71
2023/10/26 16:25:38;;;;;;;2.70;2.20;;;;;;;11.24;97.65;97794.06;217490;1259;140686;-69
2023/10/26 16:30:44;;;;;;;3.40;3.00;;;;;;;11.23;97.92;97787.67;217560;1261;141296;-72
2023/10/26 16:35:51;;;;;;;3.80;2.50;;;;;;;11.22;98.13;97787.73;218915;1261;140356;-68
2023/10/26 16:40:58;;;;;;;5.10;2.40;;;;;;;11.18;98.16;97790.72;218147;1261;140858;-74
2023/10/26 16:46:12;;;;;;;5.80;3.10;;;;;;;11.20;98.31;97789.41;217958;1261;140000;-75
2023/10/26 16:51:17;;;;;;;4.90;2.50;;;;;;;11.19;98.56;97788.69;217649;1259;140457;-69
2023/10/26 16:56:23;;;;;;;3.40;2.50;;;;;;;11.15;98.34;97789.20;218260;1259;140165;-68
2023/10/26 17:01:31;;;;;;;3.50;3.20;;;;;;;11.12;98.52;97783.48;218130;1261;141211;-71
2023/10/26 17:06:38;;;;;;;;;;;;;;;11.09;98.53;97781.86;218578;1261;140390;-71
2023/10/26 17:11:46;;;;;;;3.30;3.00;;;;;;;11.05;98.83;97781.48;217725;1260;126469;-72
2023/10/26 17:16:55;;;;;;;4.40;3.60;;;;;;;11.01;98.93;97780.58;217245;1259;140146;-69
2023/10/26 17:22:05;;;;;;;3.00;2.70;;;;;;;11.00;99.16;97776.27;217313;1260;139852;-70
2023/10/26 17:27:14;;;;;;;3.00;2.70;;;;;;;11.00;99.02;97778.14;218310;1259;141099;-71
2023/10/26 17:32:20;;;;;;;4.40;2.80;;;;;;;10.99;99.31;97779.55;217639;1258;140392;-68
2023/10/26 17:37:27;;;;;;;3.40;3.10;;;;;;;11.00;99.37;97772.91;218453;1259;140481;-69
2023/10/26 17:42:37;;;;;;;5.40;3.50;;;;;;;11.01;99.53;97773.48;217744;1259;140913;-70
2023/10/26 17:47:43;;;;;;;3.40;3.00;;;;;;;11.00;99.45;97771.47;217403;1259;140253;-71
2023/10/26 17:52:53;;;;;;;4.50;4.10;;;;;;;10.98;99.41;97771.72;218201;1258;140960;-72
2023/10/26 17:58:00;;;;;;;4.10;3.70;;;;;;;10.97;99.66;97776.63;219113;1259;160906;-72
2023/10/26 18:03:13;;;;;;;4.50;3.00;;;;;;;10.98;99.77;97778.70;218678;1259;140615;-73
2023/10/26 18:08:23;;;;;;;4.00;3.70;;;;;;;11.01;99.60;97779.73;218614;1262;141148;-69
2023/10/26 18:13:30;;;;;;;4.50;3.80;;;;;;;11.02;99.70;97779.80;218890;1262;140399;-71
2023/10/26 18:18:35;;;;;;;5.20;3.80;;;;;;;11.01;99.56;97788.13;217813;1259;140237;-72
2023/10/26 18:23:40;;;;;;;6.70;3.90;;;;;;;11.00;99.70;97789.91;219298;1258;141897;-71
2023/10/26 18:28:44;;;;;;;4.40;3.50;;;;;;;10.97;99.65;97791.14;218333;1262;140439;-73
2023/10/26 18:33:51;;;;;;;3.90;3.60;;;;;;;10.97;99.75;97798.08;217884;1259;140830;-72
2023/10/26 18:38:56;;;;;;;6.90;4.30;;;;;;;10.99;99.87;97798.05;218080;1259;140327;-73
2023/10/26 18:44:01;;;;;;;9.00;5.00;;;;;;;10.99;99.85;97797.02;217881;1259;141411;-69
2023/10/26 18:49:05;;;;;;;4.70;4.20;;;;;;;11.01;99.75;97800.30;217696;1262;140111;-70
2023/10/26 18:54:10;;;;;;;4.00;3.60;;;;;;;11.00;99.69;97803.05;217417;1261;209481;-70
2023/10/26 18:59:17;;;;;;;3.70;3.40;;;;;;;10.99;99.93;97804.92;217328;1259;141175;-71
2023/10/26 19:04:21;;;;;;;4.60;4.20;;;;;;;11.00;99.78;97804.65;217911;1259;140243;-74
2023/10/26 19:09:25;;;;;;;4.70;3.80;;;;;;;10.98;99.79;97801.15;217483;1259;140073;-72
2023/10/26 19:14:31;;;;;;;4.50;4.10;;;;;;;10.97;99.69;97799.52;217889;1259;141956;-69
2023/10/26 19:19:41;;;;;;;6.20;4.60;;;;;;;10.90;99.25;97801.93;217453;1259;142365;-71
2023/10/26 19:24:53;;;;;;;7.90;4.70;;;;;;;10.82;99.01;97798.27;218961;1259;139919;-72
2023/10/26 19:29:58;;;;;;;5.10;4.50;;;;;;;10.78;99.15;97809.30;217613;1262;140196;-72
2023/10/26 19:35:06;;;;;;;4.30;3.90;;;;;;;10.77;99.29;97804.18;218767;1257;140834;-71
2023/10/26 19:40:18;;;;;;;43.30;22.90;;;;;;;10.75;99.14;97808.09;218029;1261;140646;-70
2023/10/26 19:45:23;;;;;;;52.70;26.70;;;;;;;10.76;99.39;97802.96;218021;1258;140407;-70
2023/10/26 19:50:28;;;;;;;22.50;15.70;;;;;;;10.78;99.14;97803.22;219358;1258;142523;-71
2023/10/26 19:55:37;;;;;;;10.40;9.30;;;;;;;10.79;99.15;97804.27;219528;1259;141155;-68
2023/10/26 20:00:44;;;;;;;5.10;4.50;;;;;;;10.82;99.18;97810.37;219344;1260;140272;-71
2023/10/26 20:05:50;;;;;;;9.90;4.50;;;;;;;10.85;98.88;97800.64;218862;1259;140540;-71
2023/10/26 20:10:54;;;;;;;4.60;4.20;;;;;;;10.86;98.93;97801.27;217718;1259;140943;-71
2023/10/26 20:15:59;;;;;;;5.70;4.40;;;;;;;10.87;98.71;97801.58;217585;1261;140084;-72
2023/10/26 20:21:06;;;;;;;;;;;;;;;10.84;98.51;97800.91;217975;1257;140042;-71
2023/10/26 20:26:15;;;;;;;5.00;4.40;;;;;;;10.78;98.66;97802.36;218061;1259;126813;-72
2023/10/26 20:31:21;;;;;;;5.30;4.20;;;;;;;10.77;98.74;97806.59;218489;1258;139985;-72
2023/10/26 20:36:26;;;;;;;5.40;4.60;;;;;;;10.76;98.71;97811.02;217311;1260;140177;-72
2023/10/26 20:41:31;;;;;;;5.70;4.30;;;;;;;10.74;98.76;97813.48;218116;1260;140225;-71
2023/10/26 20:46:37;;;;;;;6.30;5.60;;;;;;;10.70;98.75;97817.75;218397;1260;140533;-71
2023/10/26 20:51:42;;;;;;;4.70;4.30;;;;;;;10.68;98.66;97814.73;217678;1257;143572;-73
2023/10/26 20:56:47;;;;;;;7.00;4.80;;;;;;;10.67;98.65;97823.02;217525;1258;140073;-71
2023/10/26 21:01:55;;;;;;;7.10;5.90;;;;;;;10.64;98.54;97825.23;217981;1258;140041;-72
2023/10/26 21:07:05;;;;;;;9.30;5.10;;;;;;;10.59;98.65;97823.89;218101;1260;142030;-75
2023/10/26 21:12:11;;;;;;;6.10;4.80;;;;;;;10.57;98.63;97821.72;217702;1258;140126;-74
2023/10/26 21:17:15;;;;;;;7.00;6.40;;;;;;;10.57;98.48;97828.70;217690;1261;141073;-69
2023/10/26 21:22:20;;;;;;;5.90;5.30;;;;;;;10.54;98.29;97830.31;218101;1257;139805;-71
2023/10/26 21:27:24;;;;;;;6.90;5.70;;;;;;;10.52;98.38;97832.09;218038;1260;139991;-72
2023/10/26 21:32:29;;;;;;;5.80;5.30;;;;;;;10.49;97.96;97839.27;217399;1257;139917;-69
2023/10/26 21:37:33;;;;;;;6.50;5.80;;;;;;;10.45;98.31;97842.11;217830;1257;140783;-74
2023/10/26 21:42:37;;;;;;;5.80;5.30;;;;;;;10.43;98.35;97837.17;218059;1260;140226;-73
2023/10/26 21:47:41;;;;;;;5.20;4.80;;;;;;;10.42;98.27;97832.96;218205;1260;141158;-73
2023/10/26 21:52:45;;;;;;;5.40;4.90;;;;;;;10.40;98.09;97828.63;218478;1258;140191;-71
2023/10/26 21:57:48;;;;;;;8.50;5.40;;;;;;;10.39;98.05;97829.81;217821;1258;140394;-72
2023/10/26 22:02:53;;;;;;;5.70;5.20;;;;;;;10.38;98.17;97830.48;218067;1261;140632;-70
2023/10/26 22:07:58;;;;;;;5.00;4.60;;;;;;;10.37;97.99;97831.34;217945;1261;139811;-72
2023/10/26 22:13:02;;;;;;;5.50;5.00;;;;;;;10.34;98.05;97839.40;218350;1260;141941;-71
2023/10/26 22:18:07;;;;;;;7.40;6.00;;;;;;;10.32;98.22;97840.86;218357;1259;140634;-72
2023/10/26 22:23:14;;;;;;;7.80;6.20;;;;;;;10.28;98.18;97841.89;218447;1257;139958;-72
2023/10/26 22:28:19;;;;;;;7.20;6.00;;;;;;;10.22;97.90;97847.15;217719;1259;140161;-70
2023/10/26 22:33:24;;;;;;;9.90;6.70;;;;;;;10.18;98.19;97842.96;217834;1259;140302;-72
2023/10/26 22:38:28;;;;;;;9.90;7.10;;;;;;;10.14;97.97;97836.16;217516;1259;140585;-71
2023/10/26 22:43:34;;;;;;;9.90;5.80;;;;;;;10.11;98.28;97836.48;217905;1257;140038;-72
2023/10/26 22:48:38;;;;;;;9.40;6.20;;;;;;;10.08;98.14;97838.43;218138;1259;140357;-71
2023/10/26 22:53:44;;;;;;;8.40;7.50;;;;;;;10.06;98.19;97837.45;217604;1262;140997;-71
2023/10/26 22:58:51;;;;;;;6.90;5.80;;;;;;;10.05;98.22;97832.56;218739;1260;140720;-70
2023/10/26 23:03:57;;;;;;;10.00;6.00;;;;;;;10.04;98.14;97835.45;217848;1259;140001;-72
2023/10/26 23:09:03;;;;;;;7.50;6.70;;;;;;;10.02;98.11;97826.41;218132;1260;140598;-71
2023/10/26 23:14:08;;;;;;;7.30;5.40;;;;;;;9.97;97.88;97824.15;217875;1260;141097;-71
2023/10/26 23:19:15;;;;;;;10.10;7.00;;;;;;;9.97;98.30;97818.67;217557;1262;139962;-71
2023/10/26 23:24:26;;;;;;;9.50;6.00;;;;;;;9.98;98.24;97819.20;217877;1257;140148;-75